sensor_id;sensor_type;location;lat;lon;timestamp;pressure;altitude;pressure_sealevel;temperature;humidity
10510;BME280;5303;53.266;10.410;2023-01-25T00:01:29;103614.38;;;2.32;100.00
10510;BME280;5303;53.266;10.410;2023-01-25T00:03:55;103603.31;;;2.42;100.00
10510;BME280;5303;53.266;10.410;2023-01-25T00:06:20;103607.72;;;2.44;100.00
10510;BME280;5303;53.266;10.410;2023-01-25T00:08:49;103604.38;;;2.38;100.00
10510;BME280;5303;53.266;10.410;2023-01-25T00:11:14;103585.16;;;2.48;100.00
10510;BME280;5303;53.266;10.410;2023-01-25T00:13:41;103575.84;;;2.59;100.00
10510;BME280;5303;53.266;10.410;2023-01-25T00:16:06;103579.34;;;2.61;100.00
10510;BME280;5303;53.266;10.410;2023-01-25T00:18:31;103578.84;;;2.49;100.00
10510;BME280;5303;53.266;10.410;2023-01-25T00:20:57;103574.13;;;2.56;100.00
10510;BME280;5303;53.266;10.410;2023-01-25T00:23:22;103565.81;;;2.37;100.00
10510;BME280;5303;53.266;10.410;2023-01-25T00:25:47;103571.28;;;2.34;100.00
10510;BME280;5303;53.266;10.410;2023-01-25T00:28:12;103573.94;;;2.36;100.00
10510;BME280;5303;53.266;10.410;2023-01-25T00:30:38;103572.16;;;2.08;100.00
10510;BME280;5303;53.266;10.410;2023-01-25T00:35:43;103567.03;;;2.28;100.00
10510;BME280;5303;53.266;10.410;2023-01-25T00:38:26;103577.31;;;2.16;100.00
10510;BME280;5303;53.266;10.410;2023-01-25T00:40:53;103570.09;;;2.16;100.00
10510;BME280;5303;53.266;10.410;2023-01-25T00:43:18;103564.13;;;2.35;100.00
10510;BME280;5303;53.266;10.410;2023-01-25T00:45:43;103552.97;;;2.45;100.00
10510;BME280;5303;53.266;10.410;2023-01-25T00:48:09;103545.69;;;2.49;100.00
10510;BME280;5303;53.266;10.410;2023-01-25T00:50:38;103546.50;;;2.51;100.00
10510;BME280;5303;53.266;10.410;2023-01-25T00:53:03;103542.13;;;2.48;100.00
10510;BME280;5303;53.266;10.410;2023-01-25T00:55:28;103548.56;;;2.43;100.00
10510;BME280;5303;53.266;10.410;2023-01-25T00:57:54;103530.03;;;2.35;100.00
10510;BME280;5303;53.266;10.410;2023-01-25T01:00:19;103544.13;;;2.42;100.00
10510;BME280;5303;53.266;10.410;2023-01-25T01:02:46;103533.94;;;2.51;100.00
10510;BME280;5303;53.266;10.410;2023-01-25T01:05:11;103524.88;;;2.54;100.00
10510;BME280;5303;53.266;10.410;2023-01-25T01:07:36;103520.91;;;2.39;100.00
10510;BME280;5303;53.266;10.410;2023-01-25T01:10:02;103516.31;;;2.43;100.00
10510;BME280;5303;53.266;10.410;2023-01-25T01:12:28;103523.53;;;2.41;100.00
10510;BME280;5303;53.266;10.410;2023-01-25T01:14:53;103520.69;;;2.45;100.00
10510;BME280;5303;53.266;10.410;2023-01-25T01:17:18;103515.09;;;2.26;100.00
10510;BME280;5303;53.266;10.410;2023-01-25T01:19:43;103514.91;;;2.31;100.00
10510;BME280;5303;53.266;10.410;2023-01-25T01:22:09;103521.09;;;2.35;100.00
10510;BME280;5303;53.266;10.410;2023-01-25T01:24:34;103529.06;;;2.38;100.00
10510;BME280;5303;53.266;10.410;2023-01-25T01:27:00;103520.06;;;2.37;100.00
10510;BME280;5303;53.266;10.410;2023-01-25T01:29:25;103516.72;;;2.30;100.00
10510;BME280;5303;53.266;10.410;2023-01-25T01:31:50;103522.06;;;2.32;100.00
10510;BME280;5303;53.266;10.410;2023-01-25T01:34:17;103518.53;;;2.30;100.00
10510;BME280;5303;53.266;10.410;2023-01-25T01:36:43;103522.16;;;2.29;100.00
10510;BME280;5303;53.266;10.410;2023-01-25T01:39:08;103518.50;;;2.31;100.00
10510;BME280;5303;53.266;10.410;2023-01-25T01:41:34;103520.25;;;2.32;100.00
10510;BME280;5303;53.266;10.410;2023-01-25T01:44:00;103515.09;;;2.26;100.00
10510;BME280;5303;53.266;10.410;2023-01-25T01:46:32;103519.47;;;2.29;100.00
10510;BME280;5303;53.266;10.410;2023-01-25T01:49:05;103518.59;;;2.28;100.00
10510;BME280;5303;53.266;10.410;2023-01-25T01:51:46;103526.34;;;2.11;100.00
10510;BME280;5303;53.266;10.410;2023-01-25T01:54:21;103523.75;;;2.08;100.00
10510;BME280;5303;53.266;10.410;2023-01-25T01:57:28;103518.19;;;2.14;100.00
10510;BME280;5303;53.266;10.410;2023-01-25T02:00:09;103510.44;;;2.31;100.00
10510;BME280;5303;53.266;10.410;2023-01-25T02:02:35;103514.59;;;2.15;100.00
10510;BME280;5303;53.266;10.410;2023-01-25T02:05:04;103513.06;;;2.06;100.00
10510;BME280;5303;53.266;10.410;2023-01-25T02:07:33;103512.13;;;2.07;100.00
10510;BME280;5303;53.266;10.410;2023-01-25T02:09:59;103506.38;;;2.18;100.00
10510;BME280;5303;53.266;10.410;2023-01-25T02:12:25;103508.63;;;2.32;100.00
10510;BME280;5303;53.266;10.410;2023-01-25T02:14:52;103505.03;;;2.05;100.00
10510;BME280;5303;53.266;10.410;2023-01-25T02:17:25;103501.16;;;2.15;100.00
10510;BME280;5303;53.266;10.410;2023-01-25T02:20:05;103501.16;;;2.15;100.00
10510;BME280;5303;53.266;10.410;2023-01-25T02:25:12;103490.88;;;2.26;100.00
10510;BME280;5303;53.266;10.410;2023-01-25T02:27:43;103489.66;;;2.10;100.00
10510;BME280;5303;53.266;10.410;2023-01-25T02:30:11;103489.56;;;2.13;100.00
10510;BME280;5303;53.266;10.410;2023-01-25T02:32:37;103473.63;;;2.07;100.00
10510;BME280;5303;53.266;10.410;2023-01-25T02:35:02;103483.19;;;2.16;100.00
10510;BME280;5303;53.266;10.410;2023-01-25T02:37:28;103472.94;;;2.27;100.00
10510;BME280;5303;53.266;10.410;2023-01-25T02:39:53;103467.03;;;2.41;100.00
10510;BME280;5303;53.266;10.410;2023-01-25T02:42:18;103462.56;;;2.41;100.00
10510;BME280;5303;53.266;10.410;2023-01-25T02:44:44;103467.72;;;2.22;100.00
10510;BME280;5303;53.266;10.410;2023-01-25T02:47:10;103466.88;;;2.20;100.00
10510;BME280;5303;53.266;10.410;2023-01-25T02:49:36;103457.56;;;2.30;100.00
10510;BME280;5303;53.266;10.410;2023-01-25T02:52:03;103454.94;;;2.29;100.00
10510;BME280;5303;53.266;10.410;2023-01-25T02:54:28;103453.47;;;2.44;100.00
10510;BME280;5303;53.266;10.410;2023-01-25T02:56:54;103445.50;;;2.42;100.00
10510;BME280;5303;53.266;10.410;2023-01-25T02:59:19;103439.34;;;2.39;100.00
10510;BME280;5303;53.266;10.410;2023-01-25T03:01:45;103449.03;;;2.43;100.00
10510;BME280;5303;53.266;10.410;2023-01-25T03:04:10;103444.94;;;2.07;100.00
10510;BME280;5303;53.266;10.410;2023-01-25T03:06:37;103443.66;;;2.18;100.00
10510;BME280;5303;53.266;10.410;2023-01-25T03:09:04;103434.78;;;2.16;100.00
10510;BME280;5303;53.266;10.410;2023-01-25T03:11:30;103427.63;;;2.15;100.00
10510;BME280;5303;53.266;10.410;2023-01-25T03:13:56;103425.50;;;2.24;100.00
10510;BME280;5303;53.266;10.410;2023-01-25T03:16:21;103426.16;;;2.31;100.00
10510;BME280;5303;53.266;10.410;2023-01-25T03:18:46;103421.38;;;2.14;100.00
10510;BME280;5303;53.266;10.410;2023-01-25T03:21:17;103426.72;;;2.16;100.00
10510;BME280;5303;53.266;10.410;2023-01-25T03:23:43;103418.00;;;2.09;100.00
10510;BME280;5303;53.266;10.410;2023-01-25T03:26:17;103420.59;;;2.12;100.00
10510;BME280;5303;53.266;10.410;2023-01-25T03:28:43;103425.34;;;2.04;100.00
10510;BME280;5303;53.266;10.410;2023-01-25T03:31:10;103423.16;;;2.15;100.00
10510;BME280;5303;53.266;10.410;2023-01-25T03:33:36;103419.13;;;2.27;100.00
10510;BME280;5303;53.266;10.410;2023-01-25T03:36:02;103415.34;;;2.32;100.00
10510;BME280;5303;53.266;10.410;2023-01-25T03:38:28;103404.72;;;2.29;100.00
10510;BME280;5303;53.266;10.410;2023-01-25T03:40:53;103407.19;;;2.36;100.00
10510;BME280;5303;53.266;10.410;2023-01-25T03:43:19;103401.69;;;2.39;100.00
10510;BME280;5303;53.266;10.410;2023-01-25T03:45:45;103402.31;;;2.22;100.00
10510;BME280;5303;53.266;10.410;2023-01-25T03:48:15;103398.28;;;2.08;100.00
10510;BME280;5303;53.266;10.410;2023-01-25T03:50:40;103394.28;;;2.20;100.00
10510;BME280;5303;53.266;10.410;2023-01-25T03:53:06;103391.38;;;2.26;100.00
10510;BME280;5303;53.266;10.410;2023-01-25T03:55:41;103385.91;;;2.28;100.00
10510;BME280;5303;53.266;10.410;2023-01-25T03:58:06;103394.50;;;2.14;100.00
10510;BME280;5303;53.266;10.410;2023-01-25T04:00:31;103395.03;;;2.24;100.00
10510;BME280;5303;53.266;10.410;2023-01-25T04:02:56;103397.38;;;2.35;100.00
10510;BME280;5303;53.266;10.410;2023-01-25T04:05:22;103390.16;;;2.35;100.00
10510;BME280;5303;53.266;10.410;2023-01-25T04:07:47;103399.25;;;2.31;100.00
10510;BME280;5303;53.266;10.410;2023-01-25T04:10:12;103396.22;;;2.40;100.00
10510;BME280;5303;53.266;10.410;2023-01-25T04:12:37;103387.59;;;2.32;100.00
10510;BME280;5303;53.266;10.410;2023-01-25T04:15:03;103393.59;;;2.15;100.00
10510;BME280;5303;53.266;10.410;2023-01-25T04:17:29;103383.31;;;2.26;100.00
10510;BME280;5303;53.266;10.410;2023-01-25T04:19:55;103376.84;;;2.32;100.00
10510;BME280;5303;53.266;10.410;2023-01-25T04:22:20;103376.94;;;2.29;100.00
10510;BME280;5303;53.266;10.410;2023-01-25T04:24:45;103374.19;;;2.30;100.00
10510;BME280;5303;53.266;10.410;2023-01-25T04:27:10;103370.53;;;2.08;100.00
10510;BME280;5303;53.266;10.410;2023-01-25T04:29:36;103368.13;;;2.25;100.00
10510;BME280;5303;53.266;10.410;2023-01-25T04:32:01;103359.00;;;2.29;100.00
10510;BME280;5303;53.266;10.410;2023-01-25T04:34:26;103364.81;;;2.17;100.00
10510;BME280;5303;53.266;10.410;2023-01-25T04:36:52;103355.81;;;2.18;100.00
10510;BME280;5303;53.266;10.410;2023-01-25T04:39:18;103359.31;;;2.20;100.00
10510;BME280;5303;53.266;10.410;2023-01-25T04:41:43;103350.97;;;2.28;100.00
10510;BME280;5303;53.266;10.410;2023-01-25T04:44:08;103352.56;;;2.33;100.00
10510;BME280;5303;53.266;10.410;2023-01-25T04:46:33;103355.59;;;2.24;100.00
10510;BME280;5303;53.266;10.410;2023-01-25T04:48:59;103354.25;;;2.13;100.00
10510;BME280;5303;53.266;10.410;2023-01-25T04:51:24;103346.75;;;2.21;100.00
10510;BME280;5303;53.266;10.410;2023-01-25T04:53:49;103347.91;;;2.14;100.00
10510;BME280;5303;53.266;10.410;2023-01-25T04:56:15;103350.72;;;2.10;100.00
10510;BME280;5303;53.266;10.410;2023-01-25T04:58:40;103347.16;;;2.10;100.00
10510;BME280;5303;53.266;10.410;2023-01-25T05:01:05;103343.09;;;2.23;100.00
10510;BME280;5303;53.266;10.410;2023-01-25T05:03:31;103343.50;;;2.13;100.00
10510;BME280;5303;53.266;10.410;2023-01-25T05:05:57;103346.00;;;2.17;100.00
10510;BME280;5303;53.266;10.410;2023-01-25T05:08:22;103344.72;;;2.27;100.00
10510;BME280;5303;53.266;10.410;2023-01-25T05:10:47;103339.94;;;2.12;100.00
10510;BME280;5303;53.266;10.410;2023-01-25T05:13:13;103341.66;;;2.13;100.00
10510;BME280;5303;53.266;10.410;2023-01-25T05:15:38;103333.31;;;2.21;100.00
10510;BME280;5303;53.266;10.410;2023-01-25T05:18:03;103336.09;;;2.18;100.00
10510;BME280;5303;53.266;10.410;2023-01-25T05:20:28;103330.25;;;2.31;100.00
10510;BME280;5303;53.266;10.410;2023-01-25T05:22:54;103321.00;;;2.39;100.00
10510;BME280;5303;53.266;10.410;2023-01-25T05:25:19;103315.09;;;2.29;100.00
10510;BME280;5303;53.266;10.410;2023-01-25T05:28:04;103313.88;;;2.38;100.00
10510;BME280;5303;53.266;10.410;2023-01-25T05:30:30;103320.91;;;2.40;100.00
10510;BME280;5303;53.266;10.410;2023-01-25T05:32:56;103323.91;;;2.32;100.00
10510;BME280;5303;53.266;10.410;2023-01-25T05:35:21;103316.69;;;2.35;100.00
10510;BME280;5303;53.266;10.410;2023-01-25T05:37:46;103315.63;;;2.15;100.00
10510;BME280;5303;53.266;10.410;2023-01-25T05:40:12;103312.66;;;2.21;100.00
10510;BME280;5303;53.266;10.410;2023-01-25T05:42:37;103314.25;;;2.27;100.00
10510;BME280;5303;53.266;10.410;2023-01-25T05:45:03;103311.03;;;2.17;100.00
10510;BME280;5303;53.266;10.410;2023-01-25T05:47:28;103312.63;;;2.23;100.00
10510;BME280;5303;53.266;10.410;2023-01-25T05:49:53;103310.06;;;2.20;100.00
10510;BME280;5303;53.266;10.410;2023-01-25T05:52:19;103314.91;;;2.10;100.00
10510;BME280;5303;53.266;10.410;2023-01-25T05:54:44;103306.66;;;2.15;100.00
10510;BME280;5303;53.266;10.410;2023-01-25T05:57:09;103305.53;;;2.20;100.00
10510;BME280;5303;53.266;10.410;2023-01-25T05:59:35;103301.16;;;2.18;100.00
10510;BME280;5303;53.266;10.410;2023-01-25T06:02:00;103304.19;;;2.08;100.00
10510;BME280;5303;53.266;10.410;2023-01-25T06:04:25;103300.25;;;2.19;100.00
10510;BME280;5303;53.266;10.410;2023-01-25T06:06:51;103295.13;;;2.11;100.00
10510;BME280;5303;53.266;10.410;2023-01-25T06:09:16;103297.81;;;2.11;100.00
10510;BME280;5303;53.266;10.410;2023-01-25T06:11:44;103298.72;;;2.35;100.00
10510;BME280;5303;53.266;10.410;2023-01-25T06:14:10;103290.28;;;2.21;100.00
10510;BME280;5303;53.266;10.410;2023-01-25T06:16:35;103287.59;;;2.21;100.00
10510;BME280;5303;53.266;10.410;2023-01-25T06:19:00;103290.81;;;2.30;100.00
10510;BME280;5303;53.266;10.410;2023-01-25T06:21:26;103291.34;;;2.40;100.00
10510;BME280;5303;53.266;10.410;2023-01-25T06:23:51;103284.13;;;2.41;100.00
10510;BME280;5303;53.266;10.410;2023-01-25T06:26:16;103289.94;;;2.30;100.00
10510;BME280;5303;53.266;10.410;2023-01-25T06:28:42;103283.38;;;2.37;100.00
10510;BME280;5303;53.266;10.410;2023-01-25T06:31:08;103289.59;;;2.39;100.00
10510;BME280;5303;53.266;10.410;2023-01-25T06:33:34;103285.91;;;2.42;100.00
10510;BME280;5303;53.266;10.410;2023-01-25T06:36:01;103294.78;;;2.44;100.00
10510;BME280;5303;53.266;10.410;2023-01-25T06:38:27;103294.72;;;2.45;100.00
10510;BME280;5303;53.266;10.410;2023-01-25T06:40:52;103297.66;;;2.39;100.00
10510;BME280;5303;53.266;10.410;2023-01-25T06:43:17;103299.00;;;2.51;100.00
10510;BME280;5303;53.266;10.410;2023-01-25T06:45:43;103293.75;;;2.48;100.00
10510;BME280;5303;53.266;10.410;2023-01-25T06:48:08;103289.97;;;2.52;100.00
10510;BME280;5303;53.266;10.410;2023-01-25T06:50:33;103290.63;;;2.59;100.00
10510;BME280;5303;53.266;10.410;2023-01-25T06:52:58;103291.22;;;2.43;100.00
10510;BME280;5303;53.266;10.410;2023-01-25T06:55:24;103289.88;;;2.55;100.00
10510;BME280;5303;53.266;10.410;2023-01-25T06:57:49;103292.59;;;2.53;100.00
10510;BME280;5303;53.266;10.410;2023-01-25T07:00:15;103298.66;;;2.37;100.00
10510;BME280;5303;53.266;10.410;2023-01-25T07:02:41;103298.50;;;2.41;100.00
10510;BME280;5303;53.266;10.410;2023-01-25T07:05:07;103293.84;;;2.45;100.00
10510;BME280;5303;53.266;10.410;2023-01-25T07:07:33;103291.34;;;2.40;100.00
10510;BME280;5303;53.266;10.410;2023-01-25T07:09:58;103288.66;;;2.40;100.00
10510;BME280;5303;53.266;10.410;2023-01-25T07:12:27;103292.03;;;2.45;100.00
10510;BME280;5303;53.266;10.410;2023-01-25T07:14:52;103287.41;;;2.49;100.00
10510;BME280;5303;53.266;10.410;2023-01-25T07:17:18;103282.16;;;2.46;100.00
10510;BME280;5303;53.266;10.410;2023-01-25T07:19:43;103275.50;;;2.32;100.00
10510;BME280;5303;53.266;10.410;2023-01-25T07:22:08;103283.81;;;2.26;100.00
10510;BME280;5303;53.266;10.410;2023-01-25T07:24:33;103270.84;;;2.38;100.00
10510;BME280;5303;53.266;10.410;2023-01-25T07:26:59;103268.78;;;2.44;100.00
10510;BME280;5303;53.266;10.410;2023-01-25T07:29:24;103266.50;;;2.33;100.00
10510;BME280;5303;53.266;10.410;2023-01-25T07:31:49;103263.75;;;2.35;100.00
10510;BME280;5303;53.266;10.410;2023-01-25T07:34:14;103261.47;;;2.24;100.00
10510;BME280;5303;53.266;10.410;2023-01-25T07:36:40;103261.78;;;2.17;100.00
10510;BME280;5303;53.266;10.410;2023-01-25T07:39:09;103255.09;;;2.27;100.00
10510;BME280;5303;53.266;10.410;2023-01-25T07:41:34;103265.81;;;2.28;100.00
10510;BME280;5303;53.266;10.410;2023-01-25T07:44:00;103261.41;;;2.26;100.00
10510;BME280;5303;53.266;10.410;2023-01-25T07:46:25;103260.53;;;2.25;100.00
10510;BME280;5303;53.266;10.410;2023-01-25T07:48:51;103263.28;;;2.24;100.00
10510;BME280;5303;53.266;10.410;2023-01-25T07:51:19;103257.09;;;2.22;100.00
10510;BME280;5303;53.266;10.410;2023-01-25T07:54:01;103255.16;;;2.25;100.00
10510;BME280;5303;53.266;10.410;2023-01-25T07:56:32;103248.84;;;2.26;100.00
10510;BME280;5303;53.266;10.410;2023-01-25T07:58:59;103241.66;;;2.27;100.00
10510;BME280;5303;53.266;10.410;2023-01-25T08:01:27;103235.31;;;2.28;100.00
10510;BME280;5303;53.266;10.410;2023-01-25T08:03:54;103235.31;;;2.28;100.00
10510;BME280;5303;53.266;10.410;2023-01-25T08:06:24;103237.09;;;2.05;100.00
10510;BME280;5303;53.266;10.410;2023-01-25T08:08:52;103238.44;;;2.17;100.00
10510;BME280;5303;53.266;10.410;2023-01-25T08:11:20;103234.75;;;2.20;100.00
10510;BME280;5303;53.266;10.410;2023-01-25T08:13:45;103230.91;;;2.27;100.00
10510;BME280;5303;53.266;10.410;2023-01-25T08:16:16;103222.41;;;2.38;100.00
10510;BME280;5303;53.266;10.410;2023-01-25T08:18:42;103213.88;;;2.26;100.00
10510;BME280;5303;53.266;10.410;2023-01-25T08:21:08;103206.66;;;2.28;100.00
10510;BME280;5303;53.266;10.410;2023-01-25T08:23:34;103204.63;;;2.33;100.00
10510;BME280;5303;53.266;10.410;2023-01-25T08:26:03;103202.81;;;2.34;100.00
10510;BME280;5303;53.266;10.410;2023-01-25T08:28:29;103197.81;;;2.47;100.00
10510;BME280;5303;53.266;10.410;2023-01-25T08:31:13;103199.97;;;2.39;100.00
10510;BME280;5303;53.266;10.410;2023-01-25T08:33:38;103197.16;;;2.42;100.00
10510;BME280;5303;53.266;10.410;2023-01-25T08:36:05;103188.59;;;2.54;100.00
10510;BME280;5303;53.266;10.410;2023-01-25T08:38:31;103192.88;;;2.58;100.00
10510;BME280;5303;53.266;10.410;2023-01-25T08:41:23;103193.44;;;2.66;100.00
10510;BME280;5303;53.266;10.410;2023-01-25T08:43:51;103191.41;;;2.73;100.00
10510;BME280;5303;53.266;10.410;2023-01-25T08:46:17;103188.88;;;2.68;100.00
10510;BME280;5303;53.266;10.410;2023-01-25T08:48:42;103187.19;;;2.66;100.00
10510;BME280;5303;53.266;10.410;2023-01-25T08:51:10;103184.81;;;2.58;100.00
10510;BME280;5303;53.266;10.410;2023-01-25T08:53:36;103191.66;;;2.67;100.00
10510;BME280;5303;53.266;10.410;2023-01-25T08:56:06;103185.34;;;2.66;100.00
10510;BME280;5303;53.266;10.410;2023-01-25T08:58:32;103176.38;;;2.67;100.00
10510;BME280;5303;53.266;10.410;2023-01-25T09:01:03;103170.13;;;2.67;100.00
10510;BME280;5303;53.266;10.410;2023-01-25T09:03:29;103170.16;;;2.65;100.00
10510;BME280;5303;53.266;10.410;2023-01-25T09:05:54;103170.84;;;2.70;100.00
10510;BME280;5303;53.266;10.410;2023-01-25T09:08:19;103164.59;;;2.70;100.00
10510;BME280;5303;53.266;10.410;2023-01-25T09:10:45;103156.22;;;2.55;100.00
10510;BME280;5303;53.266;10.410;2023-01-25T09:13:10;103152.53;;;2.58;100.00
10510;BME280;5303;53.266;10.410;2023-01-25T09:15:36;103143.97;;;2.48;100.00
10510;BME280;5303;53.266;10.410;2023-01-25T09:18:02;103147.41;;;2.52;100.00
10510;BME280;5303;53.266;10.410;2023-01-25T09:20:27;103155.69;;;2.47;100.00
10510;BME280;5303;53.266;10.410;2023-01-25T09:22:54;103158.63;;;2.41;100.00
10510;BME280;5303;53.266;10.410;2023-01-25T09:25:19;103154.84;;;2.45;100.00
10510;BME280;5303;53.266;10.410;2023-01-25T09:27:48;103142.06;;;2.50;100.00
10510;BME280;5303;53.266;10.410;2023-01-25T09:30:14;103130.78;;;2.42;100.00
10510;BME280;5303;53.266;10.410;2023-01-25T09:32:39;103133.34;;;2.45;100.00
10510;BME280;5303;53.266;10.410;2023-01-25T09:35:05;103122.50;;;2.47;100.00
10510;BME280;5303;53.266;10.410;2023-01-25T09:37:30;103124.56;;;2.40;100.00
10510;BME280;5303;53.266;10.410;2023-01-25T09:39:55;103136.19;;;2.63;100.00
10510;BME280;5303;53.266;10.410;2023-01-25T09:45:10;103122.03;;;2.79;100.00
10510;BME280;5303;53.266;10.410;2023-01-25T09:47:51;103119.72;;;2.70;100.00
10510;BME280;5303;53.266;10.410;2023-01-25T09:55:25;103117.78;;;2.74;100.00
10510;BME280;5303;53.266;10.410;2023-01-25T09:57:51;103121.81;;;2.84;100.00
10510;BME280;5303;53.266;10.410;2023-01-25T10:00:24;103111.78;;;2.88;100.00
10510;BME280;5303;53.266;10.410;2023-01-25T10:03:02;103110.97;;;2.86;100.00
10510;BME280;5303;53.266;10.410;2023-01-25T10:05:33;103111.53;;;2.94;100.00
10510;BME280;5303;53.266;10.410;2023-01-25T10:08:05;103107.47;;;3.04;100.00
10510;BME280;5303;53.266;10.410;2023-01-25T10:10:39;103100.88;;;3.11;100.00
10510;BME280;5303;53.266;10.410;2023-01-25T10:13:10;103094.56;;;2.92;100.00
10510;BME280;5303;53.266;10.410;2023-01-25T10:15:39;103098.66;;;3.00;100.00
10510;BME280;5303;53.266;10.410;2023-01-25T10:21:10;103099.06;;;2.91;100.00
10510;BME280;5303;53.266;10.410;2023-01-25T10:26:28;103097.09;;;2.95;100.00
10510;BME280;5303;53.266;10.410;2023-01-25T10:29:10;103092.34;;;2.81;100.00
10510;BME280;5303;53.266;10.410;2023-01-25T10:31:53;103085.22;;;2.80;100.00
10510;BME280;5303;53.266;10.410;2023-01-25T10:34:25;103082.50;;;3.00;100.00
10510;BME280;5303;53.266;10.410;2023-01-25T10:36:57;103086.22;;;2.98;100.00
10510;BME280;5303;53.266;10.410;2023-01-25T10:39:24;103077.22;;;2.99;100.00
10510;BME280;5303;53.266;10.410;2023-01-25T10:41:54;103070.06;;;2.98;100.00
10510;BME280;5303;53.266;10.410;2023-01-25T10:44:24;103071.25;;;3.11;100.00
10510;BME280;5303;53.266;10.410;2023-01-25T10:47:00;103061.25;;;2.94;100.00
10510;BME280;5303;53.266;10.410;2023-01-25T10:49:47;103047.88;;;2.93;100.00
10510;BME280;5303;53.266;10.410;2023-01-25T10:52:39;103044.31;;;2.92;100.00
10510;BME280;5303;53.266;10.410;2023-01-25T10:57:47;103041.13;;;3.03;100.00
10510;BME280;5303;53.266;10.410;2023-01-25T11:00:30;103033.59;;;2.91;100.00
10510;BME280;5303;53.266;10.410;2023-01-25T11:02:58;103023.38;;;2.99;100.00
10510;BME280;5303;53.266;10.410;2023-01-25T11:07:58;103018.72;;;2.82;100.00
10510;BME280;5303;53.266;10.410;2023-01-25T11:10:38;103016.84;;;2.84;100.00
10510;BME280;5303;53.266;10.410;2023-01-25T11:13:15;103015.56;;;2.93;100.00
10510;BME280;5303;53.266;10.410;2023-01-25T11:15:50;103019.75;;;2.79;100.00
10510;BME280;5303;53.266;10.410;2023-01-25T11:18:22;103010.47;;;2.66;100.00
10510;BME280;5303;53.266;10.410;2023-01-25T11:21:13;103011.41;;;2.65;100.00
10510;BME280;5303;53.266;10.410;2023-01-25T11:23:40;103008.50;;;2.90;100.00
10510;BME280;5303;53.266;10.410;2023-01-25T11:26:16;103003.66;;;2.78;100.00
10510;BME280;5303;53.266;10.410;2023-01-25T11:28:44;102999.28;;;2.75;100.00
10510;BME280;5303;53.266;10.410;2023-01-25T11:31:11;102985.69;;;2.78;100.00
10510;BME280;5303;53.266;10.410;2023-01-25T11:33:37;102982.34;;;2.73;100.00
10510;BME280;5303;53.266;10.410;2023-01-25T11:36:26;102975.16;;;2.74;100.00
10510;BME280;5303;53.266;10.410;2023-01-25T11:39:22;102961.25;;;2.64;100.00
10510;BME280;5303;53.266;10.410;2023-01-25T11:47:26;102934.94;;;2.71;100.00
10510;BME280;5303;53.266;10.410;2023-01-25T11:55:27;102918.94;;;2.87;100.00
10510;BME280;5303;53.266;10.410;2023-01-25T11:58:16;102912.69;;;2.86;100.00
10510;BME280;5303;53.266;10.410;2023-01-25T12:06:21;102892.91;;;2.87;100.00
10510;BME280;5303;53.266;10.410;2023-01-25T12:22:49;102858.84;;;2.48;100.00
10510;BME280;5303;53.266;10.410;2023-01-25T12:28:22;102855.72;;;2.58;100.00
10510;BME280;5303;53.266;10.410;2023-01-25T12:31:23;102844.59;;;2.65;100.00
10510;BME280;5303;53.266;10.410;2023-01-25T12:33:57;102835.13;;;2.56;100.00
10510;BME280;5303;53.266;10.410;2023-01-25T12:36:43;102837.75;;;2.58;100.00
10510;BME280;5303;53.266;10.410;2023-01-25T12:39:22;102826.69;;;2.45;100.00
10510;BME280;5303;53.266;10.410;2023-01-25T12:44:54;102814.28;;;2.62;100.00
10510;BME280;5303;53.266;10.410;2023-01-25T12:47:27;102791.22;;;2.56;100.00
10510;BME280;5303;53.266;10.410;2023-01-25T12:50:01;102789.53;;;2.72;100.00
10510;BME280;5303;53.266;10.410;2023-01-25T12:52:32;102775.66;;;2.63;100.00
10510;BME280;5303;53.266;10.410;2023-01-25T12:55:03;102776.16;;;2.71;100.00
10510;BME280;5303;53.266;10.410;2023-01-25T12:57:40;102779.22;;;2.63;100.00
10510;BME280;5303;53.266;10.410;2023-01-25T13:05:28;102758.66;;;2.62;100.00
10510;BME280;5303;53.266;10.410;2023-01-25T13:08:10;102748.03;;;2.59;100.00
10510;BME280;5303;53.266;10.410;2023-01-25T13:10:43;102751.09;;;2.70;100.00
10510;BME280;5303;53.266;10.410;2023-01-25T13:13:25;102749.41;;;2.68;100.00
10510;BME280;5303;53.266;10.410;2023-01-25T13:15:51;102742.19;;;2.68;100.00
10510;BME280;5303;53.266;10.410;2023-01-25T13:20:50;102740.78;;;2.61;100.00
10510;BME280;5303;53.266;10.410;2023-01-25T13:28:51;102753.47;;;2.76;100.00
10510;BME280;5303;53.266;10.410;2023-01-25T13:36:55;102743.22;;;2.66;100.00
10510;BME280;5303;53.266;10.410;2023-01-25T13:44:34;102751.00;;;2.72;100.00
10510;BME280;5303;53.266;10.410;2023-01-25T13:47:03;102745.47;;;2.75;100.00
10510;BME280;5303;53.266;10.410;2023-01-25T13:49:41;102739.06;;;2.77;100.00
10510;BME280;5303;53.266;10.410;2023-01-25T13:52:16;102725.16;;;2.87;100.00
10510;BME280;5303;53.266;10.410;2023-01-25T13:54:46;102724.81;;;2.75;100.00
10510;BME280;5303;53.266;10.410;2023-01-25T13:57:14;102723.06;;;2.74;100.00
10510;BME280;5303;53.266;10.410;2023-01-25T13:59:39;102726.00;;;2.70;100.00
10510;BME280;5303;53.266;10.410;2023-01-25T14:02:22;102730.13;;;2.77;100.00
10510;BME280;5303;53.266;10.410;2023-01-25T14:04:50;102732.66;;;2.80;100.00
10510;BME280;5303;53.266;10.410;2023-01-25T14:07:17;102727.28;;;2.80;100.00
10510;BME280;5303;53.266;10.410;2023-01-25T14:09:45;102725.75;;;2.74;100.00
10510;BME280;5303;53.266;10.410;2023-01-25T14:15:15;102723.63;;;2.45;100.00
10510;BME280;5303;53.266;10.410;2023-01-25T14:17:40;102724.78;;;2.39;100.00
10510;BME280;5303;53.266;10.410;2023-01-25T14:20:16;102729.06;;;2.43;100.00
10510;BME280;5303;53.266;10.410;2023-01-25T14:22:49;102717.59;;;2.40;100.00
10510;BME280;5303;53.266;10.410;2023-01-25T14:25:19;102714.38;;;2.50;100.00